sensor_id;sensor_type;location;lat;lon;timestamp;P1;durP1;ratioP1;P2;durP2;ratioP2
20623;SDS011;10471;42.736;23.346;2024-03-23T00:54:02;64.00;;;32.30;;
20623;SDS011;10471;42.736;23.346;2024-03-23T00:56:28;66.47;;;32.87;;
20623;SDS011;10471;42.736;23.346;2024-03-23T00:58:54;74.83;;;32.60;;
20623;SDS011;10471;42.736;23.346;2024-03-23T01:01:19;64.13;;;31.60;;
20623;SDS011;10471;42.736;23.346;2024-03-23T01:03:44;66.23;;;29.13;;
20623;SDS011;10471;42.736;23.346;2024-03-23T01:06:10;67.80;;;30.47;;
20623;SDS011;10471;42.736;23.346;2024-03-23T01:08:35;58.13;;;27.33;;
20623;SDS011;10471;42.736;23.346;2024-03-23T01:11:01;64.90;;;28.20;;
20623;SDS011;10471;42.736;23.346;2024-03-23T01:13:27;53.30;;;26.40;;
20623;SDS011;10471;42.736;23.346;2024-03-23T01:15:53;54.47;;;25.37;;
20623;SDS011;10471;42.736;23.346;2024-03-23T01:18:20;49.43;;;22.47;;
20623;SDS011;10471;42.736;23.346;2024-03-23T01:20:46;41.47;;;20.10;;
20623;SDS011;10471;42.736;23.346;2024-03-23T01:23:12;38.90;;;19.57;;
20623;SDS011;10471;42.736;23.346;2024-03-23T01:25:38;57.03;;;34.00;;
20623;SDS011;10471;42.736;23.346;2024-03-23T01:28:04;55.07;;;27.47;;
20623;SDS011;10471;42.736;23.346;2024-03-23T01:30:31;40.03;;;21.50;;
20623;SDS011;10471;42.736;23.346;2024-03-23T01:32:56;39.03;;;18.83;;
20623;SDS011;10471;42.736;23.346;2024-03-23T01:35:22;39.87;;;20.27;;
20623;SDS011;10471;42.736;23.346;2024-03-23T01:37:48;34.50;;;17.67;;
20623;SDS011;10471;42.736;23.346;2024-03-23T01:40:13;36.23;;;18.07;;
20623;SDS011;10471;42.736;23.346;2024-03-23T01:42:39;35.63;;;17.83;;
20623;SDS011;10471;42.736;23.346;2024-03-23T01:45:08;35.70;;;17.87;;
20623;SDS011;10471;42.736;23.346;2024-03-23T01:47:34;40.60;;;18.27;;
20623;SDS011;10471;42.736;23.346;2024-03-23T01:50:00;30.67;;;17.93;;
20623;SDS011;10471;42.736;23.346;2024-03-23T01:52:26;37.13;;;16.50;;
20623;SDS011;10471;42.736;23.346;2024-03-23T01:54:52;39.97;;;17.47;;
20623;SDS011;10471;42.736;23.346;2024-03-23T01:57:18;35.93;;;17.37;;
20623;SDS011;10471;42.736;23.346;2024-03-23T01:59:45;28.77;;;15.73;;
20623;SDS011;10471;42.736;23.346;2024-03-23T02:02:11;33.10;;;16.00;;
20623;SDS011;10471;42.736;23.346;2024-03-23T02:04:37;35.13;;;15.87;;
20623;SDS011;10471;42.736;23.346;2024-03-23T02:07:02;60.47;;;29.30;;
20623;SDS011;10471;42.736;23.346;2024-03-23T02:09:30;34.07;;;17.07;;
20623;SDS011;10471;42.736;23.346;2024-03-23T02:11:56;34.07;;;14.33;;
20623;SDS011;10471;42.736;23.346;2024-03-23T02:14:22;28.33;;;14.57;;
20623;SDS011;10471;42.736;23.346;2024-03-23T02:16:47;24.30;;;13.33;;
20623;SDS011;10471;42.736;23.346;2024-03-23T02:19:13;26.40;;;14.00;;
20623;SDS011;10471;42.736;23.346;2024-03-23T02:21:38;27.37;;;14.43;;
20623;SDS011;10471;42.736;23.346;2024-03-23T02:24:04;29.70;;;14.37;;
20623;SDS011;10471;42.736;23.346;2024-03-23T02:26:29;27.40;;;13.93;;
20623;SDS011;10471;42.736;23.346;2024-03-23T02:28:54;28.30;;;15.43;;
20623;SDS011;10471;42.736;23.346;2024-03-23T02:31:20;24.20;;;14.37;;
20623;SDS011;10471;42.736;23.346;2024-03-23T02:33:45;28.13;;;14.70;;
20623;SDS011;10471;42.736;23.346;2024-03-23T02:36:10;27.60;;;14.40;;
20623;SDS011;10471;42.736;23.346;2024-03-23T02:38:36;27.47;;;15.37;;
20623;SDS011;10471;42.736;23.346;2024-03-23T02:41:04;27.50;;;15.03;;
20623;SDS011;10471;42.736;23.346;2024-03-23T02:43:30;34.93;;;17.57;;
20623;SDS011;10471;42.736;23.346;2024-03-23T02:45:56;41.83;;;19.50;;
20623;SDS011;10471;42.736;23.346;2024-03-23T02:48:21;36.30;;;18.07;;
20623;SDS011;10471;42.736;23.346;2024-03-23T02:50:47;38.53;;;18.83;;
20623;SDS011;10471;42.736;23.346;2024-03-23T02:53:12;35.17;;;17.70;;
20623;SDS011;10471;42.736;23.346;2024-03-23T02:55:38;33.47;;;18.03;;
20623;SDS011;10471;42.736;23.346;2024-03-23T02:58:03;40.23;;;21.93;;
20623;SDS011;10471;42.736;23.346;2024-03-23T03:00:28;42.67;;;19.50;;
20623;SDS011;10471;42.736;23.346;2024-03-23T03:02:54;35.83;;;17.50;;
20623;SDS011;10471;42.736;23.346;2024-03-23T03:05:20;32.67;;;17.27;;
20623;SDS011;10471;42.736;23.346;2024-03-23T03:07:45;35.20;;;15.47;;
20623;SDS011;10471;42.736;23.346;2024-03-23T03:10:11;27.73;;;14.20;;
20623;SDS011;10471;42.736;23.346;2024-03-23T03:12:36;26.03;;;13.63;;
20623;SDS011;10471;42.736;23.346;2024-03-23T03:15:03;24.60;;;13.10;;
20623;SDS011;10471;42.736;23.346;2024-03-23T03:17:29;27.13;;;13.70;;
20623;SDS011;10471;42.736;23.346;2024-03-23T03:19:55;24.27;;;12.53;;
20623;SDS011;10471;42.736;23.346;2024-03-23T03:22:21;24.20;;;12.90;;
20623;SDS011;10471;42.736;23.346;2024-03-23T03:24:47;31.17;;;16.47;;
20623;SDS011;10471;42.736;23.346;2024-03-23T03:27:13;26.83;;;13.10;;
20623;SDS011;10471;42.736;23.346;2024-03-23T03:29:38;26.37;;;12.10;;
20623;SDS011;10471;42.736;23.346;2024-03-23T03:32:03;20.43;;;11.50;;
20623;SDS011;10471;42.736;23.346;2024-03-23T03:34:29;23.07;;;11.77;;
20623;SDS011;10471;42.736;23.346;2024-03-23T03:36:55;22.17;;;10.87;;
20623;SDS011;10471;42.736;23.346;2024-03-23T03:39:21;22.87;;;11.60;;
20623;SDS011;10471;42.736;23.346;2024-03-23T03:41:47;21.67;;;11.20;;
20623;SDS011;10471;42.736;23.346;2024-03-23T03:44:13;22.30;;;11.70;;
20623;SDS011;10471;42.736;23.346;2024-03-23T03:46:38;28.93;;;15.17;;
20623;SDS011;10471;42.736;23.346;2024-03-23T03:49:04;29.77;;;16.20;;
20623;SDS011;10471;42.736;23.346;2024-03-23T03:51:30;26.60;;;14.70;;
20623;SDS011;10471;42.736;23.346;2024-03-23T03:53:55;33.00;;;17.07;;
20623;SDS011;10471;42.736;23.346;2024-03-23T03:56:21;30.00;;;16.60;;
20623;SDS011;10471;42.736;23.346;2024-03-23T03:58:47;34.60;;;16.80;;
20623;SDS011;10471;42.736;23.346;2024-03-23T04:01:13;30.33;;;15.37;;
20623;SDS011;10471;42.736;23.346;2024-03-23T04:03:38;33.53;;;16.07;;
20623;SDS011;10471;42.736;23.346;2024-03-23T04:06:08;33.23;;;17.67;;
20623;SDS011;10471;42.736;23.346;2024-03-23T04:08:36;36.10;;;18.00;;
20623;SDS011;10471;42.736;23.346;2024-03-23T04:11:02;36.67;;;19.10;;
20623;SDS011;10471;42.736;23.346;2024-03-23T04:13:27;44.53;;;20.73;;
20623;SDS011;10471;42.736;23.346;2024-03-23T04:15:55;49.63;;;24.53;;
20623;SDS011;10471;42.736;23.346;2024-03-23T04:18:21;48.00;;;23.00;;
20623;SDS011;10471;42.736;23.346;2024-03-23T04:20:50;55.43;;;22.17;;
20623;SDS011;10471;42.736;23.346;2024-03-23T04:23:16;50.97;;;22.60;;
20623;SDS011;10471;42.736;23.346;2024-03-23T04:25:42;40.87;;;20.93;;
20623;SDS011;10471;42.736;23.346;2024-03-23T04:28:07;43.47;;;21.43;;
20623;SDS011;10471;42.736;23.346;2024-03-23T04:30:33;47.83;;;22.10;;
20623;SDS011;10471;42.736;23.346;2024-03-23T04:32:59;49.47;;;20.27;;
20623;SDS011;10471;42.736;23.346;2024-03-23T04:35:25;41.40;;;19.70;;
20623;SDS011;10471;42.736;23.346;2024-03-23T04:37:51;42.40;;;19.43;;
20623;SDS011;10471;42.736;23.346;2024-03-23T04:40:17;30.30;;;16.80;;
20623;SDS011;10471;42.736;23.346;2024-03-23T04:42:43;39.27;;;19.70;;
20623;SDS011;10471;42.736;23.346;2024-03-23T04:45:09;36.43;;;18.60;;
20623;SDS011;10471;42.736;23.346;2024-03-23T04:47:35;37.60;;;19.03;;
20623;SDS011;10471;42.736;23.346;2024-03-23T04:50:02;40.43;;;20.33;;
20623;SDS011;10471;42.736;23.346;2024-03-23T04:52:28;43.30;;;19.90;;
20623;SDS011;10471;42.736;23.346;2024-03-23T04:54:54;39.00;;;19.87;;
20623;SDS011;10471;42.736;23.346;2024-03-23T04:57:19;41.90;;;18.70;;
20623;SDS011;10471;42.736;23.346;2024-03-23T04:59:44;35.37;;;18.83;;
20623;SDS011;10471;42.736;23.346;2024-03-23T05:02:10;43.63;;;19.50;;
20623;SDS011;10471;42.736;23.346;2024-03-23T05:04:35;45.30;;;19.33;;
20623;SDS011;10471;42.736;23.346;2024-03-23T05:07:02;40.17;;;19.33;;
20623;SDS011;10471;42.736;23.346;2024-03-23T05:09:27;41.60;;;18.60;;
20623;SDS011;10471;42.736;23.346;2024-03-23T05:11:55;46.43;;;17.90;;
20623;SDS011;10471;42.736;23.346;2024-03-23T05:14:21;39.47;;;17.73;;
20623;SDS011;10471;42.736;23.346;2024-03-23T05:16:46;51.53;;;18.47;;
20623;SDS011;10471;42.736;23.346;2024-03-23T05:19:11;51.07;;;24.27;;
20623;SDS011;10471;42.736;23.346;2024-03-23T05:21:37;66.37;;;28.03;;
20623;SDS011;10471;42.736;23.346;2024-03-23T05:24:02;61.13;;;28.80;;
20623;SDS011;10471;42.736;23.346;2024-03-23T05:26:28;53.17;;;24.60;;
20623;SDS011;10471;42.736;23.346;2024-03-23T05:28:53;62.20;;;25.10;;
20623;SDS011;10471;42.736;23.346;2024-03-23T05:31:25;59.27;;;26.70;;
20623;SDS011;10471;42.736;23.346;2024-03-23T05:33:56;64.03;;;28.20;;
20623;SDS011;10471;42.736;23.346;2024-03-23T05:36:21;56.63;;;24.13;;
20623;SDS011;10471;42.736;23.346;2024-03-23T05:38:48;31.93;;;17.20;;
20623;SDS011;10471;42.736;23.346;2024-03-23T05:41:14;33.60;;;16.83;;
20623;SDS011;10471;42.736;23.346;2024-03-23T05:43:39;28.97;;;15.17;;
20623;SDS011;10471;42.736;23.346;2024-03-23T05:46:05;26.57;;;15.03;;
20623;SDS011;10471;42.736;23.346;2024-03-23T05:48:30;24.60;;;14.03;;
20623;SDS011;10471;42.736;23.346;2024-03-23T05:50:56;29.80;;;15.97;;
20623;SDS011;10471;42.736;23.346;2024-03-23T05:53:23;37.37;;;17.93;;
20623;SDS011;10471;42.736;23.346;2024-03-23T05:55:49;42.07;;;20.53;;
20623;SDS011;10471;42.736;23.346;2024-03-23T05:58:16;45.37;;;20.20;;
20623;SDS011;10471;42.736;23.346;2024-03-23T06:00:42;36.87;;;18.33;;
20623;SDS011;10471;42.736;23.346;2024-03-23T06:03:08;31.10;;;16.27;;
20623;SDS011;10471;42.736;23.346;2024-03-23T06:05:35;30.87;;;15.17;;
20623;SDS011;10471;42.736;23.346;2024-03-23T06:08:00;20.40;;;12.50;;
20623;SDS011;10471;42.736;23.346;2024-03-23T06:10:25;24.80;;;13.27;;
20623;SDS011;10471;42.736;23.346;2024-03-23T06:12:51;22.07;;;13.07;;
20623;SDS011;10471;42.736;23.346;2024-03-23T06:15:18;26.50;;;15.37;;
20623;SDS011;10471;42.736;23.346;2024-03-23T06:17:44;28.33;;;14.17;;
20623;SDS011;10471;42.736;23.346;2024-03-23T06:20:10;28.10;;;14.80;;
20623;SDS011;10471;42.736;23.346;2024-03-23T06:22:35;23.07;;;14.03;;
20623;SDS011;10471;42.736;23.346;2024-03-23T06:25:01;24.23;;;13.60;;
20623;SDS011;10471;42.736;23.346;2024-03-23T06:27:26;26.77;;;14.17;;
20623;SDS011;10471;42.736;23.346;2024-03-23T06:29:52;26.30;;;14.87;;
20623;SDS011;10471;42.736;23.346;2024-03-23T06:32:17;24.93;;;13.47;;
20623;SDS011;10471;42.736;23.346;2024-03-23T06:34:43;23.73;;;12.77;;
20623;SDS011;10471;42.736;23.346;2024-03-23T06:37:09;22.50;;;14.00;;
20623;SDS011;10471;42.736;23.346;2024-03-23T06:39:38;23.87;;;13.50;;
20623;SDS011;10471;42.736;23.346;2024-03-23T06:42:04;28.50;;;15.03;;
20623;SDS011;10471;42.736;23.346;2024-03-23T06:44:30;21.27;;;13.83;;
20623;SDS011;10471;42.736;23.346;2024-03-23T06:46:56;28.63;;;15.83;;
20623;SDS011;10471;42.736;23.346;2024-03-23T06:49:24;29.33;;;15.17;;
20623;SDS011;10471;42.736;23.346;2024-03-23T06:51:50;27.03;;;15.63;;
20623;SDS011;10471;42.736;23.346;2024-03-23T06:54:19;26.47;;;16.13;;
20623;SDS011;10471;42.736;23.346;2024-03-23T06:56:44;29.67;;;15.47;;
20623;SDS011;10471;42.736;23.346;2024-03-23T06:59:10;29.83;;;15.17;;
20623;SDS011;10471;42.736;23.346;2024-03-23T07:01:35;24.87;;;15.53;;
20623;SDS011;10471;42.736;23.346;2024-03-23T07:04:01;24.53;;;15.43;;
20623;SDS011;10471;42.736;23.346;2024-03-23T07:06:26;26.77;;;16.37;;
20623;SDS011;10471;42.736;23.346;2024-03-23T07:08:52;31.83;;;17.83;;
20623;SDS011;10471;42.736;23.346;2024-03-23T07:11:21;29.20;;;17.23;;
20623;SDS011;10471;42.736;23.346;2024-03-23T07:13:49;38.60;;;18.77;;
20623;SDS011;10471;42.736;23.346;2024-03-23T07:16:15;34.93;;;19.07;;
20623;SDS011;10471;42.736;23.346;2024-03-23T07:18:41;28.30;;;18.30;;
20623;SDS011;10471;42.736;23.346;2024-03-23T07:21:06;33.77;;;20.53;;
20623;SDS011;10471;42.736;23.346;2024-03-23T07:23:32;33.87;;;20.00;;
20623;SDS011;10471;42.736;23.346;2024-03-23T07:25:58;35.40;;;21.00;;
20623;SDS011;10471;42.736;23.346;2024-03-23T07:28:27;35.03;;;21.23;;
20623;SDS011;10471;42.736;23.346;2024-03-23T07:31:03;35.00;;;19.67;;
20623;SDS011;10471;42.736;23.346;2024-03-23T07:33:30;30.80;;;19.90;;
20623;SDS011;10471;42.736;23.346;2024-03-23T07:35:56;33.97;;;19.83;;
20623;SDS011;10471;42.736;23.346;2024-03-23T07:38:21;38.07;;;19.67;;
20623;SDS011;10471;42.736;23.346;2024-03-23T07:40:47;28.70;;;19.60;;
20623;SDS011;10471;42.736;23.346;2024-03-23T07:43:14;31.73;;;18.60;;
20623;SDS011;10471;42.736;23.346;2024-03-23T07:45:40;38.70;;;21.57;;
20623;SDS011;10471;42.736;23.346;2024-03-23T07:48:05;29.57;;;15.80;;
20623;SDS011;10471;42.736;23.346;2024-03-23T07:50:31;30.47;;;16.20;;
20623;SDS011;10471;42.736;23.346;2024-03-23T07:52:57;26.83;;;15.83;;
20623;SDS011;10471;42.736;23.346;2024-03-23T07:55:22;27.53;;;16.30;;
20623;SDS011;10471;42.736;23.346;2024-03-23T07:57:47;32.93;;;15.67;;
20623;SDS011;10471;42.736;23.346;2024-03-23T08:00:13;23.73;;;15.43;;
20623;SDS011;10471;42.736;23.346;2024-03-23T08:02:38;24.73;;;15.93;;
20623;SDS011;10471;42.736;23.346;2024-03-23T08:05:04;24.17;;;15.73;;
20623;SDS011;10471;42.736;23.346;2024-03-23T08:07:30;25.10;;;15.07;;
20623;SDS011;10471;42.736;23.346;2024-03-23T08:09:55;28.70;;;15.73;;
20623;SDS011;10471;42.736;23.346;2024-03-23T08:12:20;42.27;;;31.23;;
20623;SDS011;10471;42.736;23.346;2024-03-23T08:14:46;21.00;;;14.57;;
20623;SDS011;10471;42.736;23.346;2024-03-23T08:17:11;28.80;;;15.80;;
20623;SDS011;10471;42.736;23.346;2024-03-23T08:19:36;24.30;;;14.03;;
20623;SDS011;10471;42.736;23.346;2024-03-23T08:22:02;29.37;;;13.83;;
20623;SDS011;10471;42.736;23.346;2024-03-23T08:24:27;20.83;;;12.50;;
20623;SDS011;10471;42.736;23.346;2024-03-23T08:26:54;23.87;;;13.40;;
20623;SDS011;10471;42.736;23.346;2024-03-23T08:29:19;25.47;;;14.27;;
20623;SDS011;10471;42.736;23.346;2024-03-23T08:31:45;22.13;;;13.27;;
20623;SDS011;10471;42.736;23.346;2024-03-23T08:34:10;23.67;;;13.33;;
20623;SDS011;10471;42.736;23.346;2024-03-23T08:36:36;20.33;;;12.97;;
20623;SDS011;10471;42.736;23.346;2024-03-23T08:39:01;25.33;;;13.03;;
20623;SDS011;10471;42.736;23.346;2024-03-23T08:41:26;23.17;;;13.37;;
20623;SDS011;10471;42.736;23.346;2024-03-23T08:43:52;22.10;;;12.93;;
20623;SDS011;10471;42.736;23.346;2024-03-23T08:46:17;19.97;;;12.83;;
20623;SDS011;10471;42.736;23.346;2024-03-23T08:48:43;24.17;;;13.40;;
20623;SDS011;10471;42.736;23.346;2024-03-23T08:51:11;24.77;;;14.30;;
20623;SDS011;10471;42.736;23.346;2024-03-23T08:53:40;25.07;;;13.93;;
20623;SDS011;10471;42.736;23.346;2024-03-23T08:56:06;24.17;;;13.40;;
20623;SDS011;10471;42.736;23.346;2024-03-23T08:58:33;21.40;;;13.23;;
20623;SDS011;10471;42.736;23.346;2024-03-23T09:01:03;25.80;;;13.27;;
20623;SDS011;10471;42.736;23.346;2024-03-23T09:03:29;21.33;;;13.83;;
20623;SDS011;10471;42.736;23.346;2024-03-23T09:05:56;23.40;;;13.00;;
20623;SDS011;10471;42.736;23.346;2024-03-23T09:08:23;18.63;;;12.30;;
20623;SDS011;10471;42.736;23.346;2024-03-23T09:10:48;20.00;;;12.33;;
20623;SDS011;10471;42.736;23.346;2024-03-23T09:13:13;17.83;;;11.93;;
20623;SDS011;10471;42.736;23.346;2024-03-23T09:15:46;22.77;;;13.30;;
20623;SDS011;10471;42.736;23.346;2024-03-23T09:18:12;22.27;;;12.87;;
20623;SDS011;10471;42.736;23.346;2024-03-23T09:20:38;24.67;;;15.33;;
20623;SDS011;10471;42.736;23.346;2024-03-23T09:23:04;19.23;;;12.20;;
20623;SDS011;10471;42.736;23.346;2024-03-23T09:25:29;21.07;;;12.60;;
20623;SDS011;10471;42.736;23.346;2024-03-23T09:27:54;19.43;;;11.93;;
20623;SDS011;10471;42.736;23.346;2024-03-23T09:30:20;23.27;;;13.10;;
20623;SDS011;10471;42.736;23.346;2024-03-23T09:32:47;23.70;;;12.67;;
20623;SDS011;10471;42.736;23.346;2024-03-23T09:35:13;19.90;;;12.80;;
20623;SDS011;10471;42.736;23.346;2024-03-23T09:37:38;26.40;;;13.00;;
20623;SDS011;10471;42.736;23.346;2024-03-23T09:40:09;22.53;;;13.07;;
20623;SDS011;10471;42.736;23.346;2024-03-23T09:42:35;19.70;;;12.10;;
20623;SDS011;10471;42.736;23.346;2024-03-23T09:45:01;21.33;;;12.17;;
20623;SDS011;10471;42.736;23.346;2024-03-23T09:47:26;21.33;;;12.23;;
20623;SDS011;10471;42.736;23.346;2024-03-23T09:49:52;24.53;;;12.40;;
20623;SDS011;10471;42.736;23.346;2024-03-23T09:52:19;29.53;;;13.00;;
20623;SDS011;10471;42.736;23.346;2024-03-23T09:54:44;20.17;;;12.27;;
20623;SDS011;10471;42.736;23.346;2024-03-23T09:57:10;24.00;;;12.40;;
20623;SDS011;10471;42.736;23.346;2024-03-23T09:59:35;17.93;;;11.47;;
20623;SDS011;10471;42.736;23.346;2024-03-23T10:02:01;17.20;;;11.13;;
20623;SDS011;10471;42.736;23.346;2024-03-23T10:04:36;18.17;;;12.00;;
20623;SDS011;10471;42.736;23.346;2024-03-23T10:07:15;18.60;;;11.73;;
20623;SDS011;10471;42.736;23.346;2024-03-23T10:09:43;18.00;;;11.83;;
20623;SDS011;10471;42.736;23.346;2024-03-23T10:12:10;15.53;;;10.77;;
20623;SDS011;10471;42.736;23.346;2024-03-23T10:14:37;20.97;;;11.30;;
20623;SDS011;10471;42.736;23.346;2024-03-23T10:17:12;21.23;;;11.63;;
20623;SDS011;10471;42.736;23.346;2024-03-23T10:19:39;15.63;;;9.60;;
20623;SDS011;10471;42.736;23.346;2024-03-23T10:22:06;16.90;;;10.20;;
20623;SDS011;10471;42.736;23.346;2024-03-23T10:24:31;14.03;;;8.77;;
20623;SDS011;10471;42.736;23.346;2024-03-23T10:26:58;16.97;;;9.57;;
20623;SDS011;10471;42.736;23.346;2024-03-23T10:29:23;14.07;;;7.93;;
20623;SDS011;10471;42.736;23.346;2024-03-23T10:31:51;10.60;;;7.77;;
20623;SDS011;10471;42.736;23.346;2024-03-23T10:34:16;13.83;;;8.30;;
20623;SDS011;10471;42.736;23.346;2024-03-23T10:36:41;15.23;;;8.23;;
20623;SDS011;10471;42.736;23.346;2024-03-23T10:39:08;17.17;;;8.30;;
20623;SDS011;10471;42.736;23.346;2024-03-23T10:41:35;13.13;;;8.20;;
20623;SDS011;10471;42.736;23.346;2024-03-23T10:44:01;11.57;;;7.30;;
20623;SDS011;10471;42.736;23.346;2024-03-23T10:46:27;14.07;;;7.10;;
20623;SDS011;10471;42.736;23.346;2024-03-23T10:48:53;19.40;;;7.70;;
20623;SDS011;10471;42.736;23.346;2024-03-23T10:51:18;13.03;;;6.73;;
20623;SDS011;10471;42.736;23.346;2024-03-23T10:53:44;10.63;;;7.33;;
20623;SDS011;10471;42.736;23.346;2024-03-23T10:56:11;11.03;;;6.73;;
20623;SDS011;10471;42.736;23.346;2024-03-23T10:58:39;11.00;;;6.93;;
20623;SDS011;10471;42.736;23.346;2024-03-23T11:01:07;12.10;;;6.90;;
20623;SDS011;10471;42.736;23.346;2024-03-23T11:03:36;9.70;;;6.70;;
20623;SDS011;10471;42.736;23.346;2024-03-23T11:06:06;12.13;;;6.07;;
20623;SDS011;10471;42.736;23.346;2024-03-23T11:08:33;11.70;;;6.57;;
20623;SDS011;10471;42.736;23.346;2024-03-23T11:13:59;12.13;;;6.03;;
20623;SDS011;10471;42.736;23.346;2024-03-23T11:16:25;12.83;;;6.13;;
20623;SDS011;10471;42.736;23.346;2024-03-23T11:21:59;12.77;;;6.80;;
20623;SDS011;10471;42.736;23.346;2024-03-23T11:24:25;12.53;;;6.43;;
20623;SDS011;10471;42.736;23.346;2024-03-23T11:26:50;14.50;;;7.23;;
20623;SDS011;10471;42.736;23.346;2024-03-23T11:29:16;11.57;;;5.80;;
20623;SDS011;10471;42.736;23.346;2024-03-23T11:31:46;11.27;;;6.17;;
20623;SDS011;10471;42.736;23.346;2024-03-23T11:34:16;12.30;;;6.33;;
20623;SDS011;10471;42.736;23.346;2024-03-23T11:36:42;13.77;;;6.40;;
20623;SDS011;10471;42.736;23.346;2024-03-23T11:39:15;10.90;;;6.10;;
20623;SDS011;10471;42.736;23.346;2024-03-23T11:41:51;9.07;;;5.90;;
20623;SDS011;10471;42.736;23.346;2024-03-23T11:44:18;14.30;;;6.40;;
20623;SDS011;10471;42.736;23.346;2024-03-23T11:46:45;10.90;;;6.70;;
20623;SDS011;10471;42.736;23.346;2024-03-23T11:49:27;9.83;;;6.40;;
20623;SDS011;10471;42.736;23.346;2024-03-23T11:51:56;10.30;;;6.50;;
20623;SDS011;10471;42.736;23.346;2024-03-23T11:54:25;10.90;;;6.17;;
20623;SDS011;10471;42.736;23.346;2024-03-23T11:56:58;10.97;;;6.77;;
20623;SDS011;10471;42.736;23.346;2024-03-23T12:02:06;14.47;;;6.83;;
20623;SDS011;10471;42.736;23.346;2024-03-23T12:04:32;9.70;;;6.23;;
20623;SDS011;10471;42.736;23.346;2024-03-23T12:09:36;17.80;;;7.43;;
20623;SDS011;10471;42.736;23.346;2024-03-23T12:12:09;10.83;;;6.20;;
20623;SDS011;10471;42.736;23.346;2024-03-23T12:15:00;9.30;;;5.50;;
20623;SDS011;10471;42.736;23.346;2024-03-23T12:17:27;8.80;;;5.67;;
20623;SDS011;10471;42.736;23.346;2024-03-23T12:19:52;11.70;;;5.20;;
20623;SDS011;10471;42.736;23.346;2024-03-23T12:22:21;12.63;;;5.70;;
20623;SDS011;10471;42.736;23.346;2024-03-23T12:24:47;14.57;;;6.40;;
20623;SDS011;10471;42.736;23.346;2024-03-23T12:27:13;14.20;;;6.27;;
20623;SDS011;10471;42.736;23.346;2024-03-23T12:29:39;12.77;;;6.20;;
20623;SDS011;10471;42.736;23.346;2024-03-23T12:32:06;17.10;;;5.23;;
20623;SDS011;10471;42.736;23.346;2024-03-23T12:34:32;18.63;;;13.17;;
20623;SDS011;10471;42.736;23.346;2024-03-23T12:36:57;13.47;;;8.07;;
20623;SDS011;10471;42.736;23.346;2024-03-23T12:39:23;10.23;;;6.17;;
20623;SDS011;10471;42.736;23.346;2024-03-23T12:41:48;11.83;;;5.67;;
20623;SDS011;10471;42.736;23.346;2024-03-23T12:44:14;9.37;;;5.13;;
20623;SDS011;10471;42.736;23.346;2024-03-23T12:46:40;7.67;;;4.70;;
20623;SDS011;10471;42.736;23.346;2024-03-23T12:49:06;13.60;;;5.43;;
20623;SDS011;10471;42.736;23.346;2024-03-23T12:51:32;11.83;;;5.40;;
20623;SDS011;10471;42.736;23.346;2024-03-23T12:53:58;11.83;;;5.07;;
20623;SDS011;10471;42.736;23.346;2024-03-23T12:56:23;7.23;;;5.10;;
20623;SDS011;10471;42.736;23.346;2024-03-23T12:58:49;9.17;;;5.47;;
20623;SDS011;10471;42.736;23.346;2024-03-23T13:01:19;10.27;;;4.93;;
20623;SDS011;10471;42.736;23.346;2024-03-23T13:03:47;9.03;;;5.13;;
20623;SDS011;10471;42.736;23.346;2024-03-23T13:06:14;8.23;;;4.93;;
20623;SDS011;10471;42.736;23.346;2024-03-23T13:08:39;9.83;;;5.20;;
20623;SDS011;10471;42.736;23.346;2024-03-23T13:11:08;9.17;;;5.20;;
20623;SDS011;10471;42.736;23.346;2024-03-23T13:13:35;9.57;;;5.10;;
20623;SDS011;10471;42.736;23.346;2024-03-23T13:16:01;8.03;;;4.60;;
20623;SDS011;10471;42.736;23.346;2024-03-23T13:18:27;7.00;;;4.10;;
20623;SDS011;10471;42.736;23.346;2024-03-23T13:20:53;4.17;;;3.47;;
20623;SDS011;10471;42.736;23.346;2024-03-23T13:23:19;7.33;;;3.93;;
20623;SDS011;10471;42.736;23.346;2024-03-23T13:25:55;6.80;;;3.37;;
20623;SDS011;10471;42.736;23.346;2024-03-23T13:28:21;4.77;;;3.17;;
20623;SDS011;10471;42.736;23.346;2024-03-23T13:30:51;5.67;;;3.70;;
20623;SDS011;10471;42.736;23.346;2024-03-23T13:33:17;3.00;;;2.07;;
20623;SDS011;10471;42.736;23.346;2024-03-23T13:35:48;4.40;;;2.00;;
20623;SDS011;10471;42.736;23.346;2024-03-23T13:38:21;3.33;;;2.03;;
20623;SDS011;10471;42.736;23.346;2024-03-23T13:43:19;4.23;;;1.83;;
20623;SDS011;10471;42.736;23.346;2024-03-23T13:45:46;2.83;;;1.50;;
20623;SDS011;10471;42.736;23.346;2024-03-23T13:48:13;2.07;;;1.53;;
20623;SDS011;10471;42.736;23.346;2024-03-23T13:50:38;3.77;;;1.60;;
20623;SDS011;10471;42.736;23.346;2024-03-23T13:53:03;3.23;;;1.97;;
20623;SDS011;10471;42.736;23.346;2024-03-23T13:55:29;5.20;;;2.10;;
20623;SDS011;10471;42.736;23.346;2024-03-23T13:57:54;3.30;;;1.70;;
20623;SDS011;10471;42.736;23.346;2024-03-23T14:00:19;3.47;;;1.80;;
20623;SDS011;10471;42.736;23.346;2024-03-23T14:02:45;2.27;;;1.77;;
20623;SDS011;10471;42.736;23.346;2024-03-23T14:05:11;2.53;;;1.90;;
20623;SDS011;10471;42.736;23.346;2024-03-23T14:07:36;3.33;;;1.77;;
20623;SDS011;10471;42.736;23.346;2024-03-23T14:10:05;3.80;;;2.30;;
20623;SDS011;10471;42.736;23.346;2024-03-23T14:12:35;4.73;;;2.33;;
20623;SDS011;10471;42.736;23.346;2024-03-23T14:15:04;3.50;;;2.53;;
20623;SDS011;10471;42.736;23.346;2024-03-23T14:17:30;2.53;;;2.23;;
20623;SDS011;10471;42.736;23.346;2024-03-23T14:19:56;4.33;;;2.17;;
20623;SDS011;10471;42.736;23.346;2024-03-23T14:22:23;3.37;;;2.10;;
20623;SDS011;10471;42.736;23.346;2024-03-23T14:24:48;4.30;;;2.70;;
20623;SDS011;10471;42.736;23.346;2024-03-23T14:27:14;3.90;;;2.30;;
20623;SDS011;10471;42.736;23.346;2024-03-23T14:29:39;3.37;;;2.27;;
20623;SDS011;10471;42.736;23.346;2024-03-23T14:32:04;2.80;;;1.93;;
20623;SDS011;10471;42.736;23.346;2024-03-23T14:34:30;2.80;;;2.23;;
20623;SDS011;10471;42.736;23.346;2024-03-23T14:36:55;4.03;;;2.50;;
20623;SDS011;10471;42.736;23.346;2024-03-23T14:39:23;3.73;;;2.30;;
20623;SDS011;10471;42.736;23.346;2024-03-23T14:41:52;4.00;;;2.77;;
20623;SDS011;10471;42.736;23.346;2024-03-23T14:44:17;5.63;;;2.43;;
20623;SDS011;10471;42.736;23.346;2024-03-23T14:46:43;5.43;;;2.67;;
20623;SDS011;10471;42.736;23.346;2024-03-23T14:49:09;3.73;;;2.43;;
20623;SDS011;10471;42.736;23.346;2024-03-23T14:51:41;5.63;;;2.77;;
20623;SDS011;10471;42.736;23.346;2024-03-23T14:54:06;5.00;;;2.30;;
20623;SDS011;10471;42.736;23.346;2024-03-23T14:56:32;5.40;;;2.87;;
20623;SDS011;10471;42.736;23.346;2024-03-23T14:58:57;7.77;;;3.10;;
20623;SDS011;10471;42.736;23.346;2024-03-23T15:01:22;4.57;;;3.00;;
20623;SDS011;10471;42.736;23.346;2024-03-23T15:03:48;4.90;;;3.17;;
20623;SDS011;10471;42.736;23.346;2024-03-23T15:06:13;5.90;;;3.10;;
20623;SDS011;10471;42.736;23.346;2024-03-23T15:08:39;5.17;;;3.10;;
20623;SDS011;10471;42.736;23.346;2024-03-23T15:11:07;12.23;;;7.47;;
20623;SDS011;10471;42.736;23.346;2024-03-23T15:13:33;7.40;;;4.20;;
20623;SDS011;10471;42.736;23.346;2024-03-23T15:15:58;24.87;;;4.87;;
20623;SDS011;10471;42.736;23.346;2024-03-23T15:18:24;5.23;;;2.90;;